Rechercher aéroport 
image banner adimage banner adimage banner ad
image banner ad

6CA1 - Triple R Ranch

Situé à Macdoel, United States

ICAO - 6CA1, IATA -

Données fournies par Airmate  

Information générale

Coordonnées: N41°44'34" W121°52'42"
Élévation : 4380 feet MSL.
Variation magnétique : 18° East
Voir autres Aéroports à California

Données opérationnelles

Special qualification required
Heure actuelle UTC:
Heure actuelle locale:
Météo à : KLMT - Crater Lake-Klamath Rgnl ( 47 km )
METAR: KLMT 262153Z VRB04KT 9SM CLR 33/09 A2999 RMK AO2 SLP102 T03280094
TAF: KLMT 261736Z 2618/2718 VRB03KT P6SM SCT150 FM262000 22007KT P6SM BKN120 FM262300 27010KT P6SM VCSH BKN120 FM270100 32012KT P6SM SCT070 BKN100 FM270400 31006KT P6SM VCSH BKN100 FM270800 VRB03KT P6SM SCT120
Voir NOTAMs / SUP AIP / TFR affectant cet aéroport [VIEW]
Fréquences de communication: [VIEW]

Pistes:

Identifiant RWYQFULongueur (ft)Largeur (ft)SurfaceLDA (ft)
15230040GRASS
33230040GRASS

Coordonnées de l'aéroport

Adresse: Macdoel United States

Vue satellite de 6CA1